createdAt,value
2019-02-23T20:12:55.126Z,103165.84
2019-02-23T20:13:58.394Z,103169.11
2019-02-23T20:15:01.088Z,103175.66
2019-02-23T20:16:04.392Z,103180.88
2019-02-23T20:17:07.653Z,103189.52
2019-02-23T20:18:10.978Z,103185.92
2019-02-23T20:19:14.247Z,103174.27
2019-02-23T20:20:17.505Z,103175.05
2019-02-23T20:21:20.767Z,103172.49
2019-02-23T20:22:24.031Z,103171.12
2019-02-23T20:23:27.643Z,103176.52
2019-02-23T20:24:30.910Z,103175.52
2019-02-23T20:25:34.167Z,103171.30
2019-02-23T20:26:37.439Z,103171.89
2019-02-23T20:27:40.761Z,103169.41
2019-02-23T20:28:44.073Z,103168.89
2019-02-23T20:29:47.521Z,103164.72
2019-02-23T20:30:50.809Z,103164.49
2019-02-23T20:31:54.089Z,103162.36
2019-02-23T20:32:57.365Z,103156.78
2019-02-23T20:34:00.689Z,103159.34
2019-02-23T20:35:04.049Z,103151.52
2019-02-23T20:36:07.429Z,103158.48
2019-02-23T20:37:10.711Z,103154.59
2019-02-23T20:38:13.987Z,103149.51
2019-02-23T20:39:17.319Z,103149.27
2019-02-23T20:40:20.865Z,103150.96
2019-02-23T20:41:24.156Z,103149.56
2019-02-23T20:42:27.444Z,103147.33
2019-02-23T20:43:30.714Z,103147.35
2019-02-23T20:44:34.140Z,103152.94
2019-02-23T20:45:37.404Z,103147.06
2019-02-23T20:46:40.978Z,103150.75
2019-02-23T20:47:44.248Z,103137.03
2019-02-23T20:48:47.575Z,103136.17
2019-02-23T20:49:50.967Z,103133.41
2019-02-23T20:50:54.225Z,103135.08
2019-02-23T20:51:57.486Z,103133.11
2019-02-23T20:53:00.787Z,103136.75
2019-02-23T20:54:04.173Z,103136.77
2019-02-23T20:55:08.807Z,103139.32
2019-02-23T20:56:12.070Z,103138.44
2019-02-23T20:57:15.330Z,103134.02
2019-02-23T20:58:18.592Z,103136.21
2019-02-23T20:59:21.852Z,103133.86
2019-02-23T21:00:26.760Z,103135.00
2019-02-23T21:01:30.173Z,103134.68
2019-02-23T21:02:33.441Z,103129.40
2019-02-23T21:03:36.747Z,103127.66
2019-02-23T21:04:40.071Z,103128.22
2019-02-23T21:05:43.333Z,103121.48
2019-02-23T21:06:46.605Z,103120.05
2019-02-23T21:07:49.870Z,103111.27
2019-02-23T21:08:53.185Z,103111.03
2019-02-23T21:09:56.483Z,103109.12
2019-02-23T21:10:59.759Z,103110.99
2019-02-23T21:12:03.021Z,103113.56
2019-02-23T21:13:06.286Z,103122.20
2019-02-23T21:14:09.600Z,103126.20
2019-02-23T21:15:12.877Z,103128.67
2019-02-23T21:16:16.142Z,103129.78
2019-02-23T21:17:19.445Z,103126.77
2019-02-23T21:18:22.718Z,103131.06
2019-02-23T21:19:26.029Z,103121.98
2019-02-23T21:20:29.294Z,103127.23
2019-02-23T21:21:34.209Z,103124.99
2019-02-23T21:22:37.943Z,103116.36
2019-02-23T21:23:41.219Z,103111.11
2019-02-23T21:24:44.533Z,103108.01
2019-02-23T21:25:50.402Z,103107.92
2019-02-23T21:26:53.706Z,103109.30
2019-02-23T21:27:56.977Z,103104.55
2019-02-23T21:29:00.237Z,103111.23
2019-02-23T21:30:04.117Z,103104.45
2019-02-23T21:31:07.388Z,103102.51
2019-02-23T21:32:10.662Z,103106.43
2019-02-23T21:33:13.931Z,103109.52
2019-02-23T21:34:17.199Z,103103.56
2019-02-23T21:35:20.509Z,103090.15
2019-02-23T21:36:23.775Z,103096.50
2019-02-23T21:37:27.080Z,103095.33
2019-02-23T21:38:30.369Z,103094.73
2019-02-23T21:39:33.641Z,103091.20
2019-02-23T21:40:37.066Z,103100.11
2019-02-23T21:41:40.334Z,103093.39
2019-02-23T21:42:43.803Z,103093.62
2019-02-23T21:43:47.198Z,103094.13
2019-02-23T21:44:50.480Z,103093.02
2019-02-23T21:45:53.795Z,103104.45
2019-02-23T21:46:57.071Z,103093.56
2019-02-23T21:48:00.338Z,103095.64
2019-02-23T21:49:03.608Z,103092.88
2019-02-23T21:50:09.117Z,103092.82
2019-02-23T21:51:12.438Z,103089.72
2019-02-23T21:52:15.716Z,103087.15
2019-02-23T21:53:19.103Z,103088.06
2019-02-23T21:54:22.587Z,103084.48
2019-02-23T21:55:25.873Z,103084.75
2019-02-23T21:56:29.198Z,103085.77
2019-02-23T21:57:32.492Z,103084.53
2019-02-23T21:58:35.750Z,103087.24
2019-02-23T21:59:39.019Z,103087.69
2019-02-23T22:00:42.299Z,103089.11
2019-02-23T22:01:45.609Z,103088.33
2019-02-23T22:02:48.885Z,103078.56
2019-02-23T22:03:52.233Z,103075.41
2019-02-23T22:04:55.493Z,103073.00
2019-02-23T22:05:58.762Z,103072.33
2019-02-23T22:07:02.035Z,103071.44
2019-02-23T22:08:05.550Z,103070.61
2019-02-23T22:09:08.833Z,103073.09
2019-02-23T22:10:12.189Z,103078.09
2019-02-23T22:11:15.531Z,103069.98
2019-02-23T22:12:18.816Z,103069.73
2019-02-23T22:13:22.093Z,103067.25
2019-02-23T22:14:25.393Z,103065.00
2019-02-23T22:15:29.001Z,103065.55
2019-02-23T22:16:32.265Z,103070.78
2019-02-23T22:17:35.535Z,103072.18
2019-02-23T22:18:39.129Z,103069.31
2019-02-23T22:19:42.385Z,103070.41
2019-02-23T22:20:45.745Z,103077.69
2019-02-23T22:21:49.008Z,103067.41
2019-02-23T22:22:52.380Z,103072.06
2019-02-23T22:23:55.642Z,103066.17
2019-02-23T22:24:59.030Z,103064.34
2019-02-23T22:26:02.351Z,103065.70
2019-02-23T22:27:05.598Z,103064.92
2019-02-23T22:28:08.880Z,103059.22
2019-02-23T22:29:12.175Z,103055.84
2019-02-23T22:30:15.553Z,103048.25
2019-02-23T22:31:18.858Z,103048.31
2019-02-23T22:32:22.232Z,103051.42
2019-02-23T22:33:25.502Z,103048.98
2019-02-23T22:34:28.770Z,103048.41
2019-02-23T22:35:32.175Z,103050.94
2019-02-23T22:36:35.797Z,103046.78
